createdAt,value
2018-06-07T00:00:12.527Z,62.40
2018-06-07T00:00:44.257Z,62.00
2018-06-07T00:01:16.009Z,62.10
2018-06-07T00:01:47.741Z,62.10
2018-06-07T00:02:19.503Z,62.00
2018-06-07T00:02:51.214Z,62.20
2018-06-07T00:03:23.001Z,62.20
2018-06-07T00:03:54.726Z,62.10
2018-06-07T00:04:26.467Z,61.90
2018-06-07T00:04:58.198Z,62.00
2018-06-07T00:05:29.927Z,62.10
2018-06-07T00:06:01.653Z,61.90
2018-06-07T00:06:33.430Z,62.00
2018-06-07T00:07:05.305Z,62.00
2018-06-07T00:07:37.043Z,62.00
2018-06-07T00:08:08.748Z,62.40
2018-06-07T00:08:40.479Z,62.00
2018-06-07T00:09:12.251Z,62.00
2018-06-07T00:09:43.962Z,62.10
2018-06-07T00:10:15.691Z,62.30
2018-06-07T00:10:47.454Z,62.20
2018-06-07T00:11:19.176Z,62.20
2018-06-07T00:11:50.905Z,62.30
2018-06-07T00:12:22.650Z,62.80
2018-06-07T00:12:54.349Z,62.30
2018-06-07T00:13:26.070Z,62.20
2018-06-07T00:13:57.815Z,62.20
2018-06-07T00:14:29.543Z,62.10
2018-06-07T00:15:01.290Z,62.50
2018-06-07T00:15:33.106Z,62.80
2018-06-07T00:16:04.961Z,62.30
2018-06-07T00:16:36.690Z,62.20
2018-06-07T00:17:08.451Z,62.30
2018-06-07T00:17:40.165Z,62.00
2018-06-07T00:18:11.921Z,61.80
2018-06-07T00:18:43.653Z,61.90
2018-06-07T00:19:15.393Z,62.00
2018-06-07T00:19:47.172Z,61.80
2018-06-07T00:20:18.893Z,61.90
2018-06-07T00:20:50.613Z,61.80
2018-06-07T00:21:22.349Z,61.80
2018-06-07T00:21:54.203Z,61.90
2018-06-07T00:22:25.926Z,62.10
2018-06-07T00:22:57.659Z,62.20
2018-06-07T00:23:29.407Z,62.40
2018-06-07T00:24:01.132Z,62.30
2018-06-07T00:24:32.853Z,63.10
2018-06-07T00:25:04.602Z,62.30
2018-06-07T00:25:36.341Z,62.70
2018-06-07T00:26:08.062Z,62.20
2018-06-07T00:26:39.866Z,62.00
2018-06-07T00:27:11.580Z,62.00
2018-06-07T00:27:43.297Z,61.50
2018-06-07T00:28:15.133Z,62.00
2018-06-07T00:28:46.911Z,62.10
2018-06-07T00:29:18.630Z,62.30
2018-06-07T00:29:50.359Z,62.30
2018-06-07T00:30:22.097Z,62.30
2018-06-07T00:30:53.828Z,62.40
2018-06-07T00:31:25.557Z,62.20
2018-06-07T00:31:57.266Z,62.30
2018-06-07T00:32:29.000Z,62.10
2018-06-07T00:33:00.739Z,62.00
2018-06-07T00:33:32.484Z,62.30
2018-06-07T00:34:04.199Z,62.60
2018-06-07T00:34:35.926Z,62.20
2018-06-07T00:35:07.646Z,62.20
2018-06-07T00:35:39.373Z,62.40
2018-06-07T00:36:11.100Z,62.10
2018-06-07T00:36:42.852Z,62.10
2018-06-07T00:37:14.583Z,62.10
2018-06-07T00:37:46.324Z,62.10
2018-06-07T00:38:18.070Z,62.10
2018-06-07T00:38:49.787Z,62.10
2018-06-07T00:39:21.597Z,62.10
2018-06-07T00:39:53.461Z,62.10
2018-06-07T00:40:25.181Z,62.30
2018-06-07T00:40:56.923Z,62.10
2018-06-07T00:41:28.655Z,62.10
2018-06-07T00:42:00.394Z,62.20
2018-06-07T00:42:32.163Z,62.20
2018-06-07T00:43:03.914Z,62.10
2018-06-07T00:43:35.650Z,62.10
2018-06-07T00:44:07.425Z,62.10
2018-06-07T00:44:39.138Z,62.10
2018-06-07T00:45:10.860Z,62.10
2018-06-07T00:45:42.617Z,62.20
2018-06-07T00:46:14.340Z,62.10
2018-06-07T00:46:46.070Z,62.10
2018-06-07T00:47:17.802Z,62.20
2018-06-07T00:47:49.528Z,62.10
2018-06-07T00:48:21.251Z,62.20
2018-06-07T00:48:52.994Z,62.80
2018-06-07T00:49:24.718Z,62.10
2018-06-07T00:49:56.459Z,62.10
2018-06-07T00:50:28.202Z,62.20
2018-06-07T00:50:59.937Z,62.10
2018-06-07T00:51:31.654Z,62.30
2018-06-07T00:52:03.408Z,62.40
2018-06-07T00:52:35.141Z,62.50
2018-06-07T00:53:06.884Z,62.20
2018-06-07T00:53:38.616Z,62.30
2018-06-07T00:54:10.349Z,62.50
2018-06-07T00:54:42.090Z,62.60
2018-06-07T00:55:13.830Z,62.50
2018-06-07T00:55:45.541Z,62.70
2018-06-07T00:56:17.281Z,62.60
2018-06-07T00:56:49.025Z,62.70
2018-06-07T00:57:20.766Z,62.90
2018-06-07T00:57:52.504Z,62.90
2018-06-07T00:58:24.259Z,62.90
2018-06-07T00:58:55.970Z,62.60
2018-06-07T00:59:27.687Z,62.60
2018-06-07T00:59:59.427Z,62.40
2018-06-07T01:00:31.168Z,62.20
2018-06-07T01:01:02.893Z,62.10
2018-06-07T01:01:34.638Z,62.10
2018-06-07T01:02:06.368Z,62.20
2018-06-07T01:02:38.095Z,62.30
2018-06-07T01:03:09.841Z,62.40
2018-06-07T01:03:41.567Z,62.40
2018-06-07T01:04:13.306Z,62.20
2018-06-07T01:04:45.075Z,62.10
2018-06-07T01:05:16.788Z,62.10
2018-06-07T01:05:48.494Z,62.30
2018-06-07T01:06:20.238Z,62.30
2018-06-07T01:06:52.011Z,62.30
2018-06-07T01:07:23.770Z,62.30
2018-06-07T01:07:55.488Z,62.40
2018-06-07T01:08:27.222Z,62.30
2018-06-07T01:08:58.938Z,62.20
2018-06-07T01:09:30.688Z,62.20
2018-06-07T01:10:02.450Z,62.20
2018-06-07T01:10:34.173Z,63.20
2018-06-07T01:11:05.981Z,62.30
2018-06-07T01:11:37.745Z,62.30
2018-06-07T01:12:09.469Z,62.30
2018-06-07T01:12:41.196Z,62.30
2018-06-07T01:13:12.918Z,62.50
2018-06-07T01:13:44.647Z,62.40
2018-06-07T01:14:16.361Z,62.30
2018-06-07T01:14:48.096Z,62.30
2018-06-07T01:15:51.844Z,62.20
2018-06-07T01:16:23.569Z,62.10
2018-06-07T01:16:55.289Z,62.20
2018-06-07T01:17:27.035Z,62.30
2018-06-07T01:17:58.762Z,62.20
2018-06-07T01:18:30.487Z,62.40
2018-06-07T01:19:02.229Z,62.20
2018-06-07T01:19:33.946Z,62.10
2018-06-07T01:20:05.670Z,62.10
2018-06-07T01:20:37.388Z,62.10
2018-06-07T01:21:09.126Z,62.30
2018-06-07T01:21:40.866Z,62.30
2018-06-07T01:22:12.596Z,62.30
2018-06-07T01:22:44.332Z,62.30
2018-06-07T01:23:16.057Z,62.20
2018-06-07T01:23:47.785Z,62.10
2018-06-07T01:24:19.514Z,62.30
2018-06-07T01:24:51.371Z,62.30
2018-06-07T01:25:23.090Z,62.30
2018-06-07T01:25:54.826Z,62.80
2018-06-07T01:26:26.565Z,62.30
2018-06-07T01:26:58.285Z,62.30
2018-06-07T01:27:30.212Z,62.20
2018-06-07T01:28:01.962Z,62.10
2018-06-07T01:28:33.686Z,62.20
2018-06-07T01:29:05.412Z,61.90
2018-06-07T01:29:37.208Z,62.00
2018-06-07T01:30:08.999Z,61.90
2018-06-07T01:30:40.733Z,61.80
2018-06-07T01:31:12.510Z,61.80
2018-06-07T01:31:44.242Z,61.90
2018-06-07T01:32:15.965Z,61.70
2018-06-07T01:32:47.704Z,61.80
2018-06-07T01:33:19.437Z,61.50
2018-06-07T01:33:51.235Z,61.60
2018-06-07T01:34:22.926Z,61.60
2018-06-07T01:34:54.653Z,61.60
2018-06-07T01:35:26.386Z,61.90
2018-06-07T01:35:58.105Z,61.90
2018-06-07T01:36:29.849Z,61.70
2018-06-07T01:37:01.554Z,61.70
2018-06-07T01:38:05.266Z,61.50
2018-06-07T01:38:37.010Z,61.40
2018-06-07T01:39:08.749Z,61.50
2018-06-07T01:39:40.474Z,61.90
2018-06-07T01:40:12.209Z,61.60
2018-06-07T01:40:43.953Z,61.70
2018-06-07T01:41:15.651Z,61.70
2018-06-07T01:41:47.381Z,61.70
2018-06-07T01:42:19.114Z,61.60
2018-06-07T01:42:50.884Z,61.60
2018-06-07T01:43:22.593Z,61.60
2018-06-07T01:43:54.326Z,62.50
2018-06-07T01:44:26.065Z,62.00
2018-06-07T01:44:57.792Z,61.70
2018-06-07T01:45:29.522Z,61.90
2018-06-07T01:46:01.251Z,62.10
2018-06-07T01:46:32.984Z,61.70
2018-06-07T01:47:04.725Z,61.70
2018-06-07T01:47:36.449Z,61.70
2018-06-07T01:48:08.190Z,61.70
2018-06-07T01:48:39.970Z,61.60
2018-06-07T01:49:43.680Z,61.60
2018-06-07T01:50:15.406Z,61.70
2018-06-07T01:50:47.129Z,61.70
2018-06-07T01:51:18.873Z,62.00
2018-06-07T01:51:50.591Z,62.20
2018-06-07T01:52:22.313Z,62.10
2018-06-07T01:52:54.076Z,62.30
2018-06-07T01:53:25.780Z,62.20
2018-06-07T01:53:57.573Z,62.20
2018-06-07T01:54:29.307Z,62.10
2018-06-07T01:55:01.036Z,61.80
2018-06-07T01:55:32.759Z,61.70
2018-06-07T01:56:04.481Z,61.60
2018-06-07T01:56:36.214Z,61.60
2018-06-07T01:57:07.939Z,61.50
2018-06-07T01:57:39.693Z,61.50
2018-06-07T01:58:11.594Z,61.60
2018-06-07T01:58:43.338Z,61.40
2018-06-07T01:59:15.348Z,61.60
2018-06-07T01:59:47.092Z,61.60
2018-06-07T02:00:18.811Z,61.90
2018-06-07T02:00:50.525Z,61.90
2018-06-07T02:01:22.299Z,61.90
2018-06-07T02:01:54.012Z,62.00
2018-06-07T02:02:25.742Z,62.20
2018-06-07T02:02:57.473Z,62.00
2018-06-07T02:03:29.221Z,61.90
2018-06-07T02:04:00.950Z,62.20
2018-06-07T02:04:32.703Z,62.00
2018-06-07T02:05:04.418Z,61.90
2018-06-07T02:05:36.132Z,62.00
2018-06-07T02:06:07.862Z,62.60
2018-06-07T02:06:39.597Z,61.80
2018-06-07T02:07:11.324Z,61.80
2018-06-07T02:07:43.073Z,61.90
2018-06-07T02:08:14.790Z,61.90
2018-06-07T02:08:46.597Z,62.00
2018-06-07T02:09:18.328Z,62.00
2018-06-07T02:09:50.154Z,61.70
2018-06-07T02:10:21.854Z,61.60
2018-06-07T02:10:53.566Z,61.60
2018-06-07T02:11:25.304Z,62.00
2018-06-07T02:11:57.218Z,61.70
2018-06-07T02:12:28.952Z,61.90
2018-06-07T02:13:00.681Z,61.70
2018-06-07T02:13:32.427Z,62.00
2018-06-07T02:14:04.130Z,61.80
2018-06-07T02:14:35.870Z,62.10
2018-06-07T02:15:07.806Z,61.90
2018-06-07T02:15:39.545Z,61.80
2018-06-07T02:16:11.292Z,62.00
2018-06-07T02:16:43.023Z,62.00
2018-06-07T02:17:14.980Z,62.20
2018-06-07T02:17:46.709Z,62.20
2018-06-07T02:18:18.455Z,62.00
2018-06-07T02:18:50.201Z,62.00
2018-06-07T02:19:21.922Z,62.10
2018-06-07T02:19:53.658Z,61.80
2018-06-07T02:20:25.400Z,61.90
2018-06-07T02:20:57.114Z,62.10
2018-06-07T02:21:28.861Z,62.10
2018-06-07T02:22:00.636Z,62.10
2018-06-07T02:22:32.334Z,62.30
2018-06-07T02:23:04.053Z,62.40
2018-06-07T02:23:35.806Z,62.30
2018-06-07T02:24:07.529Z,62.80
2018-06-07T02:24:39.382Z,61.90
2018-06-07T02:25:11.110Z,61.80
2018-06-07T02:25:42.842Z,62.50
2018-06-07T02:26:14.788Z,61.90
2018-06-07T02:26:46.614Z,62.00
2018-06-07T02:27:18.339Z,62.00
2018-06-07T02:27:50.137Z,62.90
2018-06-07T02:28:21.868Z,61.90
2018-06-07T02:28:53.803Z,61.90
2018-06-07T02:29:25.522Z,61.60
2018-06-07T02:29:57.241Z,61.60
2018-06-07T02:30:28.980Z,61.80
2018-06-07T02:31:00.726Z,62.00
2018-06-07T02:31:32.457Z,62.00
2018-06-07T02:32:04.205Z,62.00
2018-06-07T02:32:35.933Z,62.00
2018-06-07T02:33:07.674Z,61.90
2018-06-07T02:33:39.390Z,61.80
2018-06-07T02:34:11.138Z,61.80
2018-06-07T02:34:42.866Z,62.40
2018-06-07T02:35:14.604Z,61.90
2018-06-07T02:35:46.352Z,61.70
2018-06-07T02:36:18.304Z,61.70
2018-06-07T02:37:22.255Z,61.40
2018-06-07T02:37:53.965Z,61.50
2018-06-07T02:38:25.693Z,61.70
2018-06-07T02:38:57.446Z,61.70
2018-06-07T02:39:29.175Z,61.70
2018-06-07T02:40:00.900Z,61.60
2018-06-07T02:40:32.644Z,61.60
2018-06-07T02:41:04.365Z,61.90
2018-06-07T02:41:36.091Z,62.00
2018-06-07T02:42:07.846Z,61.90
2018-06-07T02:42:39.560Z,61.80
2018-06-07T02:43:11.285Z,61.80
2018-06-07T02:43:43.082Z,61.80
2018-06-07T02:44:14.827Z,61.70
2018-06-07T02:44:46.541Z,61.80
2018-06-07T02:45:18.263Z,61.60
2018-06-07T02:45:49.985Z,61.60
2018-06-07T02:46:21.713Z,62.10
2018-06-07T02:46:53.449Z,62.10
2018-06-07T02:47:25.183Z,62.20
2018-06-07T02:47:56.900Z,62.10
2018-06-07T02:48:28.649Z,62.40
2018-06-07T02:49:00.441Z,62.40
2018-06-07T02:49:32.180Z,62.40
2018-06-07T02:50:03.909Z,62.20
2018-06-07T02:50:35.708Z,62.30
2018-06-07T02:51:07.396Z,62.10
2018-06-07T02:51:39.135Z,62.00
2018-06-07T02:52:10.902Z,62.00
2018-06-07T02:52:42.628Z,62.00
2018-06-07T02:53:14.360Z,62.20
2018-06-07T02:53:46.157Z,62.00
2018-06-07T02:54:18.029Z,61.90
2018-06-07T02:54:49.811Z,61.60
2018-06-07T02:55:21.535Z,61.70
2018-06-07T02:55:53.249Z,61.60
2018-06-07T02:56:24.983Z,62.00
2018-06-07T02:56:56.716Z,61.60
2018-06-07T02:58:00.466Z,62.30
2018-06-07T02:58:32.189Z,61.80
2018-06-07T02:59:03.942Z,62.00
2018-06-07T02:59:35.681Z,61.90
2018-06-07T03:00:07.426Z,61.50
2018-06-07T03:00:39.174Z,61.80
2018-06-07T03:01:10.969Z,61.80
2018-06-07T03:01:42.698Z,61.50
2018-06-07T03:02:14.431Z,61.90
2018-06-07T03:02:46.195Z,61.80
2018-06-07T03:03:17.926Z,61.80
2018-06-07T03:03:49.661Z,62.20
2018-06-07T03:04:21.585Z,62.30
2018-06-07T03:04:53.312Z,62.50
2018-06-07T03:05:25.061Z,62.50
2018-06-07T03:05:56.792Z,62.80
2018-06-07T03:06:28.509Z,62.60
2018-06-07T03:07:00.512Z,62.60
2018-06-07T03:07:32.242Z,62.60
2018-06-07T03:08:03.985Z,62.70
2018-06-07T03:08:35.715Z,63.10
2018-06-07T03:09:07.450Z,63.20
2018-06-07T03:09:39.195Z,63.30
2018-06-07T03:10:10.959Z,63.50
2018-06-07T03:10:42.667Z,63.80
2018-06-07T03:11:14.417Z,63.30
2018-06-07T03:11:46.149Z,62.80
2018-06-07T03:12:17.889Z,62.40
2018-06-07T03:12:49.623Z,62.20
2018-06-07T03:13:21.338Z,61.70
2018-06-07T03:13:53.070Z,62.10
2018-06-07T03:14:24.843Z,62.10
2018-06-07T03:14:56.578Z,62.00
2018-06-07T03:15:28.298Z,62.00
2018-06-07T03:16:00.019Z,61.80
2018-06-07T03:16:31.744Z,61.90
2018-06-07T03:17:03.471Z,62.20
2018-06-07T03:17:35.223Z,62.20
2018-06-07T03:18:06.946Z,62.00
2018-06-07T03:18:38.690Z,62.50
2018-06-07T03:19:10.443Z,62.30
2018-06-07T03:19:42.229Z,62.20
2018-06-07T03:20:13.958Z,62.10
2018-06-07T03:21:17.713Z,62.20
2018-06-07T03:21:49.462Z,62.20
2018-06-07T03:22:21.181Z,62.40
2018-06-07T03:22:52.912Z,62.60
2018-06-07T03:23:24.654Z,62.50
2018-06-07T03:23:56.400Z,62.30
2018-06-07T03:24:28.150Z,62.50
2018-06-07T03:24:59.890Z,62.20
2018-06-07T03:25:31.615Z,62.00
2018-06-07T03:26:03.337Z,61.90
2018-06-07T03:26:35.061Z,61.90
2018-06-07T03:27:06.789Z,62.50
2018-06-07T03:27:38.517Z,62.40
2018-06-07T03:28:10.255Z,62.00
2018-06-07T03:28:41.996Z,62.00
2018-06-07T03:29:13.722Z,62.30
2018-06-07T03:29:45.499Z,62.50
2018-06-07T03:30:17.214Z,62.00
2018-06-07T03:30:48.953Z,62.50
2018-06-07T03:31:20.691Z,62.30
2018-06-07T03:31:52.686Z,62.00
2018-06-07T03:32:24.411Z,62.20
2018-06-07T03:32:56.146Z,61.90
2018-06-07T03:33:27.871Z,62.10
2018-06-07T03:33:59.599Z,62.10
2018-06-07T03:34:31.370Z,61.70
2018-06-07T03:35:03.138Z,62.20
2018-06-07T03:35:35.028Z,62.30
2018-06-07T03:36:06.776Z,62.10
2018-06-07T03:36:38.507Z,62.30
2018-06-07T03:37:10.239Z,62.10
2018-06-07T03:37:41.973Z,62.20
2018-06-07T03:38:13.699Z,61.90
2018-06-07T03:38:45.430Z,62.10
2018-06-07T03:39:17.241Z,62.30
2018-06-07T03:39:48.973Z,62.70
2018-06-07T03:40:20.698Z,62.70
2018-06-07T03:40:52.450Z,62.60
2018-06-07T03:41:24.178Z,62.70
2018-06-07T03:41:55.902Z,62.60
2018-06-07T03:42:27.639Z,62.90
2018-06-07T03:42:59.370Z,62.70
2018-06-07T03:43:31.084Z,62.60
2018-06-07T03:44:02.810Z,62.40
2018-06-07T03:44:34.556Z,62.10
2018-06-07T03:45:06.269Z,62.80
2018-06-07T03:45:38.012Z,62.10
2018-06-07T03:46:41.775Z,62.20
2018-06-07T03:47:13.498Z,62.20
2018-06-07T03:47:45.532Z,62.00
2018-06-07T03:48:17.285Z,61.90
2018-06-07T03:48:49.015Z,61.90
2018-06-07T03:49:20.745Z,62.30
2018-06-07T03:49:52.490Z,62.00
2018-06-07T03:50:24.203Z,62.00
2018-06-07T03:50:55.939Z,62.00
2018-06-07T03:51:27.670Z,62.40
2018-06-07T03:51:59.427Z,62.10
2018-06-07T03:52:31.149Z,62.20
2018-06-07T03:53:02.909Z,62.00
2018-06-07T03:53:34.649Z,62.20
2018-06-07T03:54:06.378Z,62.30
2018-06-07T03:54:38.148Z,62.20
2018-06-07T03:55:09.925Z,62.10
2018-06-07T03:55:41.846Z,61.90
2018-06-07T03:56:13.557Z,62.10
2018-06-07T03:56:45.285Z,61.90
2018-06-07T03:57:17.016Z,61.70
2018-06-07T03:57:48.751Z,61.90
2018-06-07T03:58:20.474Z,62.10
2018-06-07T03:58:52.227Z,61.90
2018-06-07T03:59:23.953Z,62.00
2018-06-07T03:59:55.700Z,62.10
2018-06-07T04:00:27.419Z,62.80
2018-06-07T04:00:59.145Z,62.10
2018-06-07T04:01:31.377Z,62.20
2018-06-07T04:02:03.082Z,62.30
2018-06-07T04:02:35.013Z,62.20
2018-06-07T04:03:06.739Z,62.30
2018-06-07T04:03:38.462Z,62.40
2018-06-07T04:04:10.213Z,62.50
2018-06-07T04:04:41.965Z,62.60
2018-06-07T04:05:13.710Z,63.00
2018-06-07T04:05:45.428Z,63.00
2018-06-07T04:06:17.200Z,62.80
2018-06-07T04:06:49.086Z,62.90
2018-06-07T04:07:20.969Z,63.20
2018-06-07T04:07:52.689Z,62.90
2018-06-07T04:08:24.490Z,62.80
2018-06-07T04:08:56.225Z,62.50
2018-06-07T04:09:28.075Z,62.80
2018-06-07T04:10:00.031Z,62.80
2018-06-07T04:10:31.761Z,62.60
2018-06-07T04:11:03.615Z,62.90
2018-06-07T04:11:35.383Z,62.90
2018-06-07T04:12:07.177Z,62.80
2018-06-07T04:12:38.984Z,62.90
2018-06-07T04:13:11.056Z,64.00
2018-06-07T04:13:42.971Z,63.70
2018-06-07T04:14:14.808Z,63.90
2018-06-07T04:14:46.850Z,64.00
2018-06-07T04:15:18.794Z,64.50
2018-06-07T04:15:50.579Z,64.30
2018-06-07T04:16:22.301Z,64.00
2018-06-07T04:16:54.032Z,64.30
2018-06-07T04:17:25.830Z,64.20
2018-06-07T04:17:57.584Z,64.40
2018-06-07T04:18:29.323Z,65.30
2018-06-07T04:19:01.041Z,64.90
2018-06-07T04:19:32.765Z,64.90
2018-06-07T04:20:04.527Z,64.90
2018-06-07T04:20:36.260Z,65.00
2018-06-07T04:21:08.000Z,65.00
2018-06-07T04:21:40.008Z,64.90
2018-06-07T04:22:11.759Z,65.00
2018-06-07T04:23:15.725Z,65.80
2018-06-07T04:23:47.446Z,65.30
2018-06-07T04:24:19.163Z,65.40
2018-06-07T04:24:50.914Z,65.30
2018-06-07T04:25:22.658Z,65.60
2018-06-07T04:25:54.373Z,65.30
2018-06-07T04:26:26.124Z,64.70
2018-06-07T04:26:57.841Z,64.40
2018-06-07T04:27:29.577Z,64.80
2018-06-07T04:28:01.318Z,65.60
2018-06-07T04:28:33.040Z,63.70
2018-06-07T04:29:04.785Z,63.90
2018-06-07T04:29:36.507Z,62.80
2018-06-07T04:30:08.355Z,63.40
2018-06-07T04:30:40.052Z,64.20
2018-06-07T04:31:11.766Z,63.10
2018-06-07T04:31:43.505Z,62.70
2018-06-07T04:32:15.232Z,63.50
2018-06-07T04:32:46.975Z,63.50
2018-06-07T04:33:18.669Z,63.70
2018-06-07T04:33:50.392Z,63.20
2018-06-07T04:34:22.178Z,63.00
2018-06-07T04:34:53.872Z,62.60
2018-06-07T04:35:25.602Z,62.80
2018-06-07T04:35:57.379Z,61.90
2018-06-07T04:36:29.075Z,62.60
2018-06-07T04:37:00.815Z,62.20
2018-06-07T04:37:32.589Z,62.70
2018-06-07T04:38:04.422Z,63.10
2018-06-07T04:38:36.423Z,63.30
2018-06-07T04:39:08.179Z,64.30
2018-06-07T04:39:40.186Z,64.60
2018-06-07T04:40:12.130Z,65.30
2018-06-07T04:40:43.887Z,65.30
2018-06-07T04:41:15.626Z,65.60
2018-06-07T04:41:47.562Z,66.00
2018-06-07T04:42:19.374Z,65.40
2018-06-07T04:42:51.371Z,65.40
2018-06-07T04:43:23.102Z,65.00
2018-06-07T04:43:54.866Z,65.20
2018-06-07T04:44:26.759Z,65.40
2018-06-07T04:44:58.501Z,65.40
2018-06-07T04:45:30.204Z,65.10
2018-06-07T04:46:01.934Z,66.00
2018-06-07T04:46:33.761Z,65.90
2018-06-07T04:47:05.460Z,65.80
2018-06-07T04:47:37.170Z,65.90
2018-06-07T04:48:09.167Z,65.90
2018-06-07T04:48:40.905Z,65.70
2018-06-07T04:49:12.616Z,66.00
2018-06-07T04:49:44.333Z,65.80
2018-06-07T04:50:16.124Z,64.90
2018-06-07T04:50:47.846Z,65.10
2018-06-07T04:51:19.589Z,65.00
2018-06-07T04:51:51.312Z,64.90
2018-06-07T04:52:23.029Z,65.40
2018-06-07T04:52:54.753Z,64.20
2018-06-07T04:53:26.476Z,65.40
2018-06-07T04:53:58.213Z,65.40
2018-06-07T04:54:29.933Z,65.80
2018-06-07T04:55:01.663Z,66.30
2018-06-07T04:55:33.588Z,65.40
2018-06-07T04:56:05.322Z,64.30
2018-06-07T04:56:37.054Z,63.60
2018-06-07T04:57:08.776Z,64.30
2018-06-07T04:57:40.502Z,63.80
2018-06-07T04:58:12.213Z,62.80
2018-06-07T04:58:43.986Z,62.80
2018-06-07T04:59:15.706Z,63.30
2018-06-07T04:59:47.471Z,63.70
2018-06-07T05:00:19.166Z,62.50
2018-06-07T05:00:50.915Z,62.40
2018-06-07T05:01:22.684Z,63.70
2018-06-07T05:01:54.404Z,63.40
2018-06-07T05:02:26.149Z,62.60
2018-06-07T05:02:57.887Z,63.30
2018-06-07T05:03:29.599Z,64.70
2018-06-07T05:04:01.325Z,64.40
2018-06-07T05:04:33.046Z,64.10
2018-06-07T05:05:36.805Z,64.20
2018-06-07T05:06:08.536Z,62.40
2018-06-07T05:06:40.294Z,62.80
2018-06-07T05:07:12.195Z,63.70
2018-06-07T05:07:43.914Z,62.80
2018-06-07T05:08:15.647Z,62.40
2018-06-07T05:08:47.371Z,62.10
2018-06-07T05:09:19.125Z,62.20
2018-06-07T05:09:50.842Z,62.80
2018-06-07T05:10:22.579Z,62.10
2018-06-07T05:10:54.329Z,62.00
2018-06-07T05:11:26.052Z,63.10
2018-06-07T05:11:57.806Z,62.20
2018-06-07T05:12:29.541Z,62.10
2018-06-07T05:13:01.282Z,62.40
2018-06-07T05:13:33.011Z,62.40
2018-06-07T05:14:04.745Z,62.10
2018-06-07T05:14:36.656Z,62.20
2018-06-07T05:15:08.407Z,62.20
2018-06-07T05:15:40.178Z,62.10
2018-06-07T05:16:11.917Z,62.20
2018-06-07T05:16:43.724Z,62.20
2018-06-07T05:17:15.590Z,62.30
2018-06-07T05:17:47.357Z,62.10
2018-06-07T05:18:19.098Z,62.10
2018-06-07T05:18:51.093Z,62.80
2018-06-07T05:19:22.805Z,62.10
2018-06-07T05:19:54.534Z,62.10
2018-06-07T05:20:26.266Z,62.30
2018-06-07T05:20:58.016Z,62.30
2018-06-07T05:21:29.756Z,62.20
2018-06-07T05:22:01.499Z,62.40
2018-06-07T05:22:33.237Z,62.30
2018-06-07T05:23:04.988Z,62.10
2018-06-07T05:23:36.797Z,62.10
2018-06-07T05:24:08.488Z,62.70
2018-06-07T05:25:12.254Z,62.90
2018-06-07T05:25:44.014Z,62.20
2018-06-07T05:26:15.753Z,62.70
2018-06-07T05:26:47.484Z,62.90
2018-06-07T05:27:19.229Z,62.70
2018-06-07T05:27:50.965Z,62.00
2018-06-07T05:28:22.758Z,63.00
2018-06-07T05:28:54.495Z,62.30
2018-06-07T05:29:26.241Z,62.10
2018-06-07T05:29:57.965Z,62.60
2018-06-07T05:30:29.698Z,62.60
2018-06-07T05:31:01.449Z,61.90
2018-06-07T05:31:33.176Z,62.10
2018-06-07T05:32:04.965Z,62.10
2018-06-07T05:32:36.852Z,62.80
2018-06-07T05:33:08.580Z,62.70
2018-06-07T05:33:40.404Z,62.00
2018-06-07T05:34:12.126Z,61.70
2018-06-07T05:34:43.851Z,62.60
2018-06-07T05:35:15.642Z,62.00
2018-06-07T05:35:47.381Z,61.90
2018-06-07T05:36:19.097Z,62.30
2018-06-07T05:36:50.814Z,62.20
2018-06-07T05:37:22.543Z,62.90
2018-06-07T05:37:54.273Z,63.00
2018-06-07T05:38:26.031Z,62.30
2018-06-07T05:39:30.075Z,62.30
2018-06-07T05:40:01.810Z,61.90
2018-06-07T05:40:33.531Z,61.90
2018-06-07T05:41:05.284Z,62.10
2018-06-07T05:41:37.001Z,62.20
2018-06-07T05:42:08.729Z,63.10
2018-06-07T05:42:40.477Z,63.10
2018-06-07T05:43:44.238Z,61.90
2018-06-07T05:44:16.000Z,62.50
2018-06-07T05:44:47.853Z,62.00
2018-06-07T05:45:19.584Z,62.00
2018-06-07T05:45:51.309Z,62.10
2018-06-07T05:46:23.025Z,62.10
2018-06-07T05:46:54.761Z,61.80
2018-06-07T05:47:26.485Z,62.00
2018-06-07T05:47:58.220Z,61.90
2018-06-07T05:48:29.938Z,61.70
2018-06-07T05:49:01.689Z,61.80
2018-06-07T05:49:33.406Z,62.10
2018-06-07T05:50:05.148Z,61.80
2018-06-07T05:50:36.869Z,61.90
2018-06-07T05:51:08.593Z,62.10
2018-06-07T05:51:40.360Z,62.20
2018-06-07T05:52:12.265Z,62.10
2018-06-07T05:52:43.990Z,62.00
2018-06-07T05:53:15.747Z,61.90
2018-06-07T05:53:47.450Z,62.30
2018-06-07T05:54:19.168Z,62.10
2018-06-07T05:54:50.911Z,62.60
2018-06-07T05:55:22.647Z,62.10
2018-06-07T05:55:54.417Z,62.00
2018-06-07T05:56:26.307Z,61.90
2018-06-07T05:56:58.055Z,62.00
2018-06-07T05:57:29.974Z,62.00
2018-06-07T05:58:01.816Z,62.30
2018-06-07T05:58:33.524Z,61.90
2018-06-07T05:59:05.249Z,61.90
2018-06-07T05:59:37.078Z,62.20
2018-06-07T06:00:09.013Z,62.10
2018-06-07T06:00:40.759Z,61.90
2018-06-07T06:01:12.482Z,61.90
2018-06-07T06:01:44.408Z,61.80
2018-06-07T06:02:16.159Z,62.00
2018-06-07T06:02:47.980Z,62.20
2018-06-07T06:03:19.885Z,62.10
2018-06-07T06:03:51.807Z,62.10
2018-06-07T06:04:23.758Z,62.00
2018-06-07T06:04:55.474Z,62.00
2018-06-07T06:05:27.245Z,62.00
2018-06-07T06:05:59.140Z,62.00
2018-06-07T06:06:30.869Z,61.90
2018-06-07T06:07:02.605Z,61.90
2018-06-07T06:07:34.336Z,62.00
2018-06-07T06:08:06.050Z,62.00
2018-06-07T06:08:37.795Z,62.10
2018-06-07T06:09:09.545Z,62.00
2018-06-07T06:09:41.262Z,61.80
2018-06-07T06:10:12.991Z,62.30
2018-06-07T06:10:44.734Z,62.20
2018-06-07T06:11:16.462Z,62.20
2018-06-07T06:11:48.988Z,62.20
2018-06-07T06:12:20.776Z,61.90
2018-06-07T06:12:52.643Z,61.90
2018-06-07T06:13:24.366Z,62.00
2018-06-07T06:13:56.195Z,61.90
2018-06-07T06:14:27.937Z,62.00
2018-06-07T06:14:59.628Z,62.10
2018-06-07T06:15:31.354Z,62.40
2018-06-07T06:16:03.128Z,62.10
2018-06-07T06:16:34.881Z,61.90
2018-06-07T06:17:06.601Z,62.00
2018-06-07T06:17:38.327Z,61.90
2018-06-07T06:18:10.068Z,61.90
2018-06-07T06:18:41.798Z,61.90
2018-06-07T06:19:13.526Z,62.10
2018-06-07T06:19:45.246Z,61.90
2018-06-07T06:20:16.969Z,62.40
2018-06-07T06:20:48.686Z,62.10
2018-06-07T06:21:20.511Z,62.10
2018-06-07T06:21:52.401Z,61.90
2018-06-07T06:22:24.122Z,61.90
2018-06-07T06:22:55.907Z,62.00
2018-06-07T06:23:27.636Z,61.90
2018-06-07T06:23:59.354Z,61.90
2018-06-07T06:24:31.107Z,61.90
2018-06-07T06:25:02.896Z,62.00
2018-06-07T06:25:34.627Z,62.00
2018-06-07T06:26:06.421Z,61.90
2018-06-07T06:26:38.179Z,61.90
2018-06-07T06:27:09.909Z,61.80
2018-06-07T06:27:41.645Z,62.30
2018-06-07T06:28:13.387Z,62.00
2018-06-07T06:28:45.113Z,62.00
2018-06-07T06:29:16.830Z,62.10
2018-06-07T06:29:48.585Z,62.50
2018-06-07T06:30:20.294Z,62.30
2018-06-07T06:30:52.041Z,62.30
2018-06-07T06:31:23.797Z,62.40
2018-06-07T06:31:55.524Z,62.10
2018-06-07T06:32:27.245Z,62.20
2018-06-07T06:32:58.983Z,62.30
2018-06-07T06:33:30.706Z,62.20
2018-06-07T06:34:34.466Z,62.30
2018-06-07T06:35:06.174Z,62.30
2018-06-07T06:35:37.903Z,62.20
2018-06-07T06:36:09.634Z,62.30
2018-06-07T06:36:41.378Z,62.50
2018-06-07T06:37:13.114Z,62.50
2018-06-07T06:37:44.826Z,62.40
2018-06-07T06:38:16.545Z,62.40
2018-06-07T06:38:48.314Z,62.30
2018-06-07T06:39:20.039Z,62.50
2018-06-07T06:39:51.775Z,62.40
2018-06-07T06:40:23.513Z,62.50
2018-06-07T06:40:55.253Z,62.40
2018-06-07T06:41:26.969Z,62.40
2018-06-07T06:41:58.806Z,62.50
2018-06-07T06:42:30.517Z,62.40
2018-06-07T06:43:02.241Z,62.50
2018-06-07T06:43:33.974Z,62.40
2018-06-07T06:44:05.722Z,62.40
2018-06-07T06:44:37.442Z,62.70
2018-06-07T06:45:09.183Z,62.90
2018-06-07T06:45:40.957Z,62.70
2018-06-07T06:46:12.654Z,62.70
2018-06-07T06:46:44.412Z,63.00
2018-06-07T06:47:16.134Z,62.70
2018-06-07T06:47:47.856Z,62.60
2018-06-07T06:48:19.602Z,62.70
2018-06-07T06:48:51.361Z,62.70
2018-06-07T06:49:23.142Z,62.80
2018-06-07T06:49:55.117Z,62.80
2018-06-07T06:50:26.810Z,62.90
2018-06-07T06:50:58.572Z,63.00
2018-06-07T06:51:30.301Z,63.00
2018-06-07T06:52:02.018Z,62.90
2018-06-07T06:52:33.753Z,63.10
2018-06-07T06:53:05.496Z,63.00
2018-06-07T06:53:37.226Z,62.90
2018-06-07T06:54:09.008Z,62.90
2018-06-07T06:54:40.738Z,62.90
2018-06-07T06:55:12.481Z,63.30
2018-06-07T06:55:44.217Z,63.30